Time;durP1;ratioP1;P1;durP2;ratioP2;P2;SDS_P1;SDS_P2;PMS_P1;PMS_P2;Temp;Humidity;BMP_temperature;BMP_pressure;BME280_temperature;BME280_humidity;BME280_pressure;Samples;Min_cycle;Max_cycle;Signal;HPM_P1;HPM_P2
2021/08/23 00:02:47;;;;;;;0.95;0.90;;;23.70;99.90;;;;;;20717136;28;20261;-80
2021/08/23 00:12:51;;;;;;;2.03;1.50;;;23.70;99.90;;;;;;20701511;28;20195;-81
2021/08/23 00:22:56;;;;;;;4.37;2.60;;;23.70;99.90;;;;;;20699985;28;20317;-81
2021/08/23 00:33:02;;;;;;;1.80;1.40;;;23.50;99.90;;;;;;20752425;28;20226;-81
2021/08/23 00:43:08;;;;;;;1.70;1.08;;;23.40;99.90;;;;;;20761981;28;20232;-78
2021/08/23 00:53:12;;;;;;;1.77;1.47;;;23.30;99.90;;;;;;20763158;28;20681;-81
2021/08/23 01:03:22;;;;;;;1.00;0.70;;;23.20;99.90;;;;;;20778325;28;20305;-81
2021/08/23 01:13:26;;;;;;;0.70;0.70;;;23.00;99.90;;;;;;20778761;28;20337;-81
2021/08/23 01:23:33;;;;;;;0.70;0.70;;;22.90;99.90;;;;;;20779892;28;20399;-80
2021/08/23 01:33:41;;;;;;;1.80;0.80;;;22.90;99.90;;;;;;20759064;28;20218;-80
2021/08/23 01:43:45;;;;;;;2.40;1.67;;;22.80;99.90;;;;;;20776061;28;20222;-80
2021/08/23 01:53:49;;;;;;;3.30;1.90;;;22.80;99.90;;;;;;20776720;28;20288;-79
2021/08/23 02:03:53;;;;;;;5.00;1.07;;;22.80;99.90;;;;;;20720230;28;20219;-81
2021/08/23 02:13:58;;;;;;;2.20;1.45;;;22.70;99.90;;;;;;20702910;28;20202;-81
2021/08/23 02:24:05;;;;;;;3.80;1.40;;;22.90;99.90;;;;;;20710327;28;20309;-80
2021/08/23 02:34:10;;;;;;;2.22;1.25;;;22.80;99.90;;;;;;20771649;28;20233;-80
2021/08/23 02:44:13;;;;;;;1.47;1.00;;;22.60;99.90;;;;;;20789343;28;20312;-80
2021/08/23 02:54:18;;;;;;;1.15;0.73;;;22.60;99.90;;;;;;20788705;28;20205;-80
2021/08/23 03:04:22;;;;;;;0.73;0.73;;;22.60;99.90;;;;;;20786009;28;20706;-79
2021/08/23 03:14:27;;;;;;;2.10;1.30;;;22.80;99.90;;;;;;20786997;28;20198;-78
2021/08/23 03:24:30;;;;;;;5.43;1.77;;;22.80;99.90;;;;;;20765885;28;20232;-79
2021/08/23 03:34:36;;;;;;;1.50;1.40;;;22.70;99.90;;;;;;20787741;28;20768;-81
2021/08/23 03:44:43;;;;;;;1.47;1.33;;;22.60;99.90;;;;;;20785406;28;20582;-80
2021/08/23 03:54:48;;;;;;;6.60;1.53;;;22.50;99.90;;;;;;20784551;28;20563;-81
2021/08/23 04:04:52;;;;;;;2.20;0.93;;;22.50;99.90;;;;;;20720317;28;20222;-80
2021/08/23 04:14:59;;;;;;;2.17;1.27;;;22.60;99.90;;;;;;20705107;28;20664;-81
2021/08/23 04:25:04;;;;;;;1.35;1.13;;;22.90;99.90;;;;;;20699663;28;20343;-81
2021/08/23 04:35:09;;;;;;;1.37;1.27;;;22.90;99.90;;;;;;20766894;28;20571;-81
2021/08/23 04:45:13;;;;;;;1.83;1.02;;;22.90;99.90;;;;;;20762760;28;20348;-80
2021/08/23 04:55:18;;;;;;;1.50;1.25;;;22.90;99.90;;;;;;20777490;28;20663;-80
2021/08/23 05:05:21;;;;;;;1.23;0.77;;;22.80;99.90;;;;;;20779564;28;20240;-80
2021/08/23 05:15:26;;;;;;;2.78;1.02;;;22.60;99.90;;;;;;20777659;28;20281;-80
2021/08/23 05:25:33;;;;;;;3.97;1.20;;;22.80;99.90;;;;;;20764655;28;20396;-80
2021/08/23 05:35:38;;;;;;;1.42;1.10;;;22.90;99.90;;;;;;20776702;28;20280;-77
2021/08/23 05:45:42;;;;;;;1.70;1.10;;;23.10;99.90;;;;;;20779071;28;20217;-82
2021/08/23 05:55:48;;;;;;;2.00;1.10;;;23.10;99.90;;;;;;20761384;28;20225;-82
2021/08/23 06:05:52;;;;;;;0.95;0.68;;;23.20;99.90;;;;;;20713100;28;20702;-81
2021/08/23 06:15:58;;;;;;;3.13;1.88;;;23.50;99.90;;;;;;20697176;28;20409;-82
2021/08/23 06:26:02;;;;;;;4.43;1.65;;;23.80;99.90;;;;;;20691624;28;20716;-81
2021/08/23 06:36:07;;;;;;;1.63;1.05;;;24.00;99.90;;;;;;20770943;28;20691;-77
2021/08/23 06:46:11;;;;;;;4.28;1.75;;;24.40;99.90;;;;;;20774080;28;20226;-82
2021/08/23 06:56:20;;;;;;;2.13;1.70;;;24.90;99.90;;;;;;20781590;28;20198;-81
2021/08/23 07:06:24;;;;;;;3.00;1.10;;;25.00;99.90;;;;;;20769431;28;20311;-81
2021/08/23 07:16:30;;;;;;;1.30;0.65;;;25.30;99.90;;;;;;20771248;28;20281;-75
2021/08/23 07:26:34;;;;;;;1.45;1.35;;;25.30;99.90;;;;;;20788778;28;20591;-82
2021/08/23 07:36:39;;;;;;;2.75;1.65;;;25.80;99.90;;;;;;20769376;28;20198;-82
2021/08/23 07:46:43;;;;;;;0.90;0.90;;;26.10;99.90;;;;;;20787263;28;20708;-83
2021/08/23 07:56:48;;;;;;;1.10;0.90;;;26.30;99.90;;;;;;20767570;28;20216;-82
2021/08/23 08:06:52;;;;;;;2.90;1.15;;;26.20;99.90;;;;;;20782453;28;20230;-80
2021/08/23 08:16:58;;;;;;;0.93;0.93;;;26.20;99.90;;;;;;20785068;28;20200;-81
2021/08/23 08:27:02;;;;;;;1.50;0.88;;;26.30;99.90;;;;;;20784582;28;20245;-84
2021/08/23 08:37:07;;;;;;;1.65;0.52;;;26.40;99.90;;;;;;20781282;28;20196;-80
2021/08/23 08:47:15;;;;;;;2.08;0.80;;;26.60;99.90;;;;;;20781604;28;20241;-80
2021/08/23 08:57:21;;;;;;;2.05;1.10;;;27.10;99.90;;;;;;20764324;28;20501;-82
2021/08/23 09:07:24;;;;;;;1.30;1.20;;;27.30;99.90;;;;;;20781294;28;20318;-83
2021/08/23 09:17:29;;;;;;;0.90;0.70;;;27.20;99.90;;;;;;20778010;28;20268;-82
2021/08/23 09:27:33;;;;;;;4.57;1.85;;;27.00;99.90;;;;;;20760876;28;20233;-80
2021/08/23 09:37:38;;;;;;;1.92;1.23;;;26.60;99.90;;;;;;20811788;28;20301;-82
2021/08/23 09:47:42;;;;;;;1.35;1.17;;;26.40;99.90;;;;;;20756515;28;20694;-80
2021/08/23 09:57:47;;;;;;;2.05;0.85;;;26.40;99.90;;;;;;20772426;28;20248;-81
2021/08/23 10:07:51;;;;;;;2.15;1.40;;;26.60;99.90;;;;;;20694363;28;20603;-78
2021/08/23 10:18:00;;;;;;;1.17;1.08;;;27.00;99.90;;;;;;20697266;28;20259;-79
2021/08/23 10:28:08;;;;;;;2.50;1.13;;;27.20;99.90;;;;;;20706073;28;20834;-82
2021/08/23 10:38:18;;;;;;;1.50;1.10;;;27.50;99.90;;;;;;20791200;28;20270;-85
2021/08/23 10:48:24;;;;;;;1.88;1.10;;;27.60;99.90;;;;;;20772155;28;20225;-82
2021/08/23 10:58:31;;;;;;;0.25;0.20;;;27.30;99.90;;;;;;20787117;28;20210;-81
2021/08/23 11:08:35;;;;;;;6.32;2.63;;;27.20;99.90;;;;;;20771400;28;20742;-83
2021/08/23 11:18:45;;;;;;;2.30;1.55;;;27.00;99.90;;;;;;20790903;28;20206;-80
2021/08/23 11:28:49;;;;;;;1.20;0.90;;;26.80;99.90;;;;;;20787455;28;20234;-81
2021/08/23 11:38:54;;;;;;;2.45;0.77;;;27.10;99.90;;;;;;20790568;28;20304;-79
2021/08/23 11:48:58;;;;;;;1.45;1.33;;;27.40;99.90;;;;;;20790233;28;20357;-79
2021/08/23 11:59:14;;;;;;;4.00;2.15;;;28.40;99.90;;;;;;20769838;28;20337;-81
2021/08/23 12:09:20;;;;;;;2.50;1.75;;;29.60;99.90;;;;;;20704377;28;20198;-81
2021/08/23 12:19:25;;;;;;;1.48;1.00;;;27.90;99.90;;;;;;20702157;28;20206;-78
2021/08/23 12:29:34;;;;;;;4.55;2.47;;;28.10;99.90;;;;;;20726076;28;20356;-77
2021/08/23 12:39:40;;;;;;;2.47;1.48;;;30.10;99.90;;;;;;20762749;28;20289;-79
2021/08/23 12:49:43;;;;;;;1.65;1.20;;;29.90;99.90;;;;;;20783617;28;20194;-77
2021/08/23 12:59:48;;;;;;;3.03;2.05;;;31.40;99.90;;;;;;20781255;28;20236;-80
2021/08/23 13:09:52;;;;;;;3.22;1.48;;;32.00;99.90;;;;;;20796878;28;20233;-81
2021/08/23 13:19:57;;;;;;;3.40;2.65;;;29.60;99.90;;;;;;20799355;28;20690;-78
2021/08/23 13:30:00;;;;;;;3.08;2.38;;;29.00;99.90;;;;;;20777872;28;20245;-81
2021/08/23 13:40:09;;;;;;;1.25;1.15;;;31.80;99.90;;;;;;20780610;28;20222;-78
2021/08/23 13:50:18;;;;;;;1.00;0.90;;;33.40;99.90;;;;;;20777116;28;20251;-78
2021/08/23 14:00:30;;;;;;;1.05;0.90;;;33.80;99.90;;;;;;20753714;28;20227;-76
2021/08/23 14:10:38;;;;;;;1.83;1.38;;;34.70;99.90;;;;;;20708393;28;20202;-80
2021/08/23 14:20:47;;;;;;;3.10;1.73;;;34.10;99.90;;;;;;20714540;28;20222;-75
2021/08/23 14:30:51;;;;;;;1.70;1.42;;;34.40;99.90;;;;;;20765051;28;20316;-82
2021/08/23 14:40:57;;;;;;;2.00;1.90;;;31.50;99.90;;;;;;20776549;28;20584;-87
2021/08/23 14:51:02;;;;;;;2.05;1.10;;;29.90;99.90;;;;;;20757616;28;20547;-81
2021/08/23 15:01:10;;;;;;;0.93;0.88;;;28.90;99.90;;;;;;20775448;28;20679;-77
2021/08/23 15:11:14;;;;;;;1.90;0.68;;;30.00;99.90;;;;;;20773264;28;20198;-82
2021/08/23 15:21:19;;;;;;;0.60;0.60;;;29.10;99.90;;;;;;20792742;28;20501;-80
2021/08/23 15:31:35;;;;;;;1.90;1.23;;;28.20;99.90;;;;;;20754604;28;20234;-80
2021/08/23 15:41:43;;;;;;;3.97;1.27;;;27.50;99.90;;;;;;20752685;28;20221;-79
2021/08/23 15:51:47;;;;;;;1.38;1.10;;;27.20;99.90;;;;;;20761860;28;20198;-78
2021/08/23 16:01:52;;;;;;;0.93;0.80;;;27.10;99.90;;;;;;20766943;28;20218;-76
2021/08/23 16:12:00;;;;;;;1.15;0.68;;;27.00;99.90;;;;;;20787077;28;20205;-79
2021/08/23 16:22:07;;;;;;;1.75;0.93;;;26.90;99.90;;;;;;20750420;28;20233;-81
2021/08/23 16:32:11;;;;;;;2.13;0.68;;;26.70;99.90;;;;;;20784790;28;20226;-79
2021/08/23 16:42:16;;;;;;;0.75;0.68;;;26.70;99.90;;;;;;20767315;28;20485;-77
2021/08/23 16:52:20;;;;;;;0.82;0.75;;;26.50;99.90;;;;;;20786290;28;20190;-75
2021/08/23 17:02:47;;;;;;;5.53;1.58;;;26.40;99.90;;;;;;20762411;28;20280;-82
2021/08/23 17:12:53;;;;;;;0.70;0.63;;;26.30;99.90;;;;;;20451856;29;20208;-83
2021/08/23 17:23:02;;;;;;;1.13;0.77;;;26.20;99.90;;;;;;20448331;29;20225;-78
2021/08/23 17:33:06;;;;;;;6.07;1.90;;;26.20;99.90;;;;;;20448667;29;20284;-83
2021/08/23 17:43:11;;;;;;;0.80;0.65;;;26.20;99.90;;;;;;20505328;28;20529;-85
2021/08/23 17:53:18;;;;;;;0.57;0.57;;;26.20;99.90;;;;;;20700419;28;20278;-89
2021/08/23 18:03:24;;;;;;;1.85;1.75;;;26.20;99.90;;;;;;20755673;28;20452;-86
2021/08/23 18:13:28;;;;;;;2.15;0.57;;;26.10;99.90;;;;;;20785738;28;20225;-85
2021/08/23 18:23:34;;;;;;;1.65;1.55;;;26.10;99.90;;;;;;20767008;28;20535;-85
2021/08/23 18:33:38;;;;;;;4.25;1.63;;;26.10;99.90;;;;;;20750271;28;20225;-85
2021/08/23 18:43:43;;;;;;;1.67;0.73;;;26.10;99.90;;;;;;20781814;28;20433;-87
2021/08/23 18:53:47;;;;;;;5.95;1.45;;;25.90;99.90;;;;;;20768649;28;20896;-85
2021/08/23 19:03:52;;;;;;;1.48;0.68;;;25.70;99.90;;;;;;20698426;28;20257;-85
2021/08/23 19:13:56;;;;;;;1.15;0.73;;;25.60;99.90;;;;;;20711978;28;20207;-84
2021/08/23 19:24:01;;;;;;;1.38;0.45;;;25.50;99.90;;;;;;20710355;28;20261;-86
2021/08/23 19:34:04;;;;;;;2.80;0.60;;;25.40;99.90;;;;;;20764713;28;20705;-84
2021/08/23 19:44:09;;;;;;;1.80;1.05;;;25.20;99.90;;;;;;20771195;28;20380;-85
2021/08/23 19:54:13;;;;;;;0.47;0.43;;;25.00;99.90;;;;;;20789685;28;20481;-84
2021/08/23 20:04:19;;;;;;;1.75;1.17;;;24.80;99.90;;;;;;20777162;28;20265;-86
2021/08/23 20:14:23;;;;;;;1.00;0.90;;;24.90;99.90;;;;;;20798744;28;20194;-85
2021/08/23 20:24:28;;;;;;;2.17;1.13;;;24.80;99.90;;;;;;20793956;28;20218;-83
2021/08/23 20:34:34;;;;;;;0.40;0.30;;;25.00;99.90;;;;;;20770936;28;20592;-83
2021/08/23 20:44:41;;;;;;;0.73;0.73;;;24.90;99.90;;;;;;20797232;28;20622;-83
2021/08/23 20:54:45;;;;;;;6.35;0.80;;;24.50;99.90;;;;;;20783314;28;20610;-82
2021/08/23 21:04:50;;;;;;;1.08;0.75;;;24.30;99.90;;;;;;20715794;28;20258;-83
2021/08/23 21:14:58;;;;;;;0.80;0.55;;;24.40;99.90;;;;;;20699121;28;20231;-84
2021/08/23 21:25:05;;;;;;;2.55;0.80;;;24.50;99.90;;;;;;20700296;28;20949;-82
2021/08/23 21:35:10;;;;;;;3.05;1.05;;;24.40;99.90;;;;;;20765872;28;20229;-82
2021/08/23 21:45:16;;;;;;;1.65;1.10;;;24.50;99.90;;;;;;20779968;28;20856;-82
2021/08/23 21:55:20;;;;;;;0.95;0.85;;;24.50;99.90;;;;;;20757830;28;20551;-82
2021/08/23 22:05:25;;;;;;;0.93;0.90;;;24.40;99.90;;;;;;20774574;28;20699;-83
2021/08/23 22:15:29;;;;;;;0.20;0.20;;;24.70;99.90;;;;;;20775292;28;20252;-82
2021/08/23 22:25:34;;;;;;;2.50;0.73;;;24.70;99.90;;;;;;20757402;28;20244;-83
2021/08/23 22:35:37;;;;;;;1.60;1.13;;;24.80;99.90;;;;;;20790312;28;20222;-82
2021/08/23 22:45:43;;;;;;;1.60;0.90;;;25.10;99.90;;;;;;20790787;28;20309;-83
2021/08/23 22:55:46;;;;;;;0.50;0.50;;;25.10;99.90;;;;;;20790548;28;20562;-83
2021/08/23 23:05:51;;;;;;;3.75;1.10;;;25.00;99.90;;;;;;20716674;28;20222;-82
2021/08/23 23:15:55;;;;;;;1.63;0.85;;;25.20;99.90;;;;;;20709189;28;20381;-83
2021/08/23 23:26:00;;;;;;;0.55;0.47;;;25.00;99.90;;;;;;20706244;28;20477;-81
2021/08/23 23:36:04;;;;;;;0.82;0.80;;;25.30;99.90;;;;;;20779653;28;20906;-82
2021/08/23 23:46:10;;;;;;;0.47;0.20;;;25.20;99.90;;;;;;20782469;28;20268;-82
2021/08/23 23:56:13;;;;;;;0.20;0.10;;;25.00;99.90;;;;;;20785479;28;20457;-82
